Time;durP1;ratioP1;P1;durP2;ratioP2;P2;SDS_P1;SDS_P2;PMS_P1;PMS_P2;Temp;Humidity;BMP_temperature;BMP_pressure;BME280_temperature;BME280_humidity;BME280_pressure;Samples;Min_cycle;Max_cycle;Signal;HPM_P1;HPM_P2
2021/12/30 00:01:31;;;;;;;27.23;13.93;;;10.90;99.90;;;;;;6197977;23;19995;-87
2021/12/30 00:04:02;;;;;;;35.20;15.18;;;10.80;99.90;;;;;;6188121;23;20007;-89
2021/12/30 00:06:38;;;;;;;;;;;;;;;;;;;;;
2021/12/30 00:09:09;;;;;;;30.75;14.27;;;10.80;99.90;;;;;;6212154;23;20012;-88
2021/12/30 00:11:38;;;;;;;;;;;10.80;99.90;;;;;;6180171;23;20092;-87
2021/12/30 00:14:09;;;;;;;32.67;13.80;;;10.80;99.90;;;;;;6185114;23;19907;-88
2021/12/30 00:16:42;;;;;;;32.47;14.60;;;10.80;99.90;;;;;;6160771;23;20013;-88
2021/12/30 00:19:12;;;;;;;29.88;13.93;;;10.80;99.90;;;;;;6160805;23;20096;-87
2021/12/30 00:21:46;;;;;;;29.77;13.75;;;10.80;99.90;;;;;;6184566;23;20065;-87
2021/12/30 00:24:16;;;;;;;33.50;14.02;;;10.80;99.90;;;;;;6160717;23;20001;-88
2021/12/30 00:26:45;;;;;;;29.80;13.82;;;10.80;99.90;;;;;;6184374;23;20092;-87
2021/12/30 00:29:22;;;;;;;37.28;14.07;;;10.80;99.90;;;;;;6183648;23;20088;-87
2021/12/30 00:32:05;;;;;;;;;;;;;;;;;;;;;
2021/12/30 00:34:43;;;;;;;28.63;14.13;;;10.80;99.90;;;;;;6184631;23;20065;-87
2021/12/30 00:37:18;;;;;;;32.35;13.43;;;10.80;99.90;;;;;;6184671;23;20055;-87
2021/12/30 00:39:46;;;;;;;30.70;13.32;;;10.80;99.90;;;;;;6161719;23;20040;-87
2021/12/30 00:42:15;;;;;;;27.52;12.38;;;10.80;99.90;;;;;;6159384;23;20063;-87
2021/12/30 00:44:46;;;;;;;32.35;13.77;;;10.80;99.90;;;;;;6184053;23;20001;-87
2021/12/30 00:47:18;;;;;;;26.77;12.50;;;10.90;99.90;;;;;;6159419;23;20013;-88
2021/12/30 00:49:56;;;;;;;40.88;13.57;;;10.90;99.90;;;;;;6159264;23;20040;-88
2021/12/30 00:52:22;;;;;;;29.05;11.93;;;10.90;99.90;;;;;;6183838;23;20009;-87
2021/12/30 00:54:56;;;;;;;28.05;11.40;;;11.00;99.90;;;;;;6184386;23;20001;-87
2021/12/30 00:57:22;;;;;;;27.65;12.15;;;11.00;99.90;;;;;;6161328;23;20432;-87
2021/12/30 00:59:47;;;;;;;31.42;12.02;;;11.00;99.90;;;;;;6186213;23;20012;-88
2021/12/30 01:02:16;;;;;;;29.25;10.98;;;11.00;99.90;;;;;;6185906;23;20012;-88
2021/12/30 01:04:44;;;;;;;28.75;9.98;;;11.10;99.90;;;;;;6161684;23;20001;-88
2021/12/30 01:07:13;;;;;;;27.77;9.77;;;11.10;99.90;;;;;;6160629;23;20013;-87
2021/12/30 01:09:49;;;;;;;;;;;;;;;;;;;;;
2021/12/30 01:12:20;;;;;;;27.23;9.95;;;11.10;99.90;;;;;;6186487;23;20080;-87
2021/12/30 01:14:56;;;;;;;27.55;10.20;;;11.10;99.90;;;;;;6185659;23;20005;-87
2021/12/30 01:18:08;;;;;;;26.20;9.20;;;11.10;99.90;;;;;;6187392;23;20068;-88
2021/12/30 01:20:41;;;;;;;26.27;8.65;;;11.20;99.90;;;;;;6187562;23;20451;-88
2021/12/30 01:23:07;;;;;;;25.30;8.55;;;11.20;99.90;;;;;;6162214;23;20008;-88
2021/12/30 01:25:46;;;;;;;26.83;8.07;;;11.20;99.90;;;;;;6161264;23;20013;-88
2021/12/30 01:28:38;;;;;;;21.42;8.20;;;11.20;99.90;;;;;;6186333;23;20013;-88
2021/12/30 01:31:04;;;;;;;31.92;9.60;;;11.30;99.90;;;;;;6187475;23;20445;-88
2021/12/30 01:33:43;;;;;;;;;;;;;;;;;;;;;
2021/12/30 01:36:21;;;;;;;33.95;9.82;;;11.30;99.90;;;;;;6187733;23;20084;-87
2021/12/30 01:38:52;;;;;;;27.58;9.18;;;11.30;99.90;;;;;;6188039;23;20063;-88
2021/12/30 01:41:50;;;;;;;;;;;;;;;;;;;;;
2021/12/30 01:44:43;;;;;;;;;;;;;;;;;;;;;
2021/12/30 01:47:20;;;;;;;30.77;11.13;;;11.40;99.90;;;;;;6214111;23;20016;-89
2021/12/30 01:49:54;;;;;;;27.38;10.32;;;11.40;99.90;;;;;;6212894;23;20047;-87
2021/12/30 01:52:38;;;;;;;39.03;12.23;;;11.40;99.90;;;;;;6199090;23;20005;-88
2021/12/30 01:55:13;;;;;;;33.13;11.40;;;11.50;99.90;;;;;;6186837;23;20008;-88
2021/12/30 01:57:57;;;;;;;34.17;12.10;;;11.60;99.90;;;;;;6161622;23;20095;-88
2021/12/30 02:00:27;;;;;;;41.80;12.98;;;11.60;99.90;;;;;;6185566;23;19997;-87
2021/12/30 02:02:53;;;;;;;28.80;11.37;;;11.60;99.90;;;;;;6187010;23;20009;-88
2021/12/30 02:05:21;;;;;;;30.83;12.77;;;11.60;99.90;;;;;;6184359;23;20035;-87
2021/12/30 02:07:55;;;;;;;32.53;12.52;;;11.60;99.90;;;;;;6160431;23;20014;-87
2021/12/30 02:10:32;;;;;;;37.65;12.95;;;11.70;99.90;;;;;;6160492;23;20009;-88
2021/12/30 02:13:01;;;;;;;43.00;14.35;;;11.70;99.90;;;;;;6185393;23;20001;-87
2021/12/30 02:15:49;;;;;;;35.17;13.98;;;11.70;99.90;;;;;;6185161;23;20005;-87
2021/12/30 02:18:24;;;;;;;;;;;;;;;;;;;;;
2021/12/30 02:20:54;;;;;;;34.40;13.13;;;11.70;99.90;;;;;;6186718;23;20387;-87
2021/12/30 02:23:28;;;;;;;35.17;13.23;;;11.70;99.90;;;;;;6160042;23;20016;-88
2021/12/30 02:26:04;;;;;;;37.55;13.73;;;11.70;99.90;;;;;;6185425;23;20009;-88
2021/12/30 02:28:32;;;;;;;37.15;14.05;;;11.70;99.90;;;;;;6185006;23;20099;-87
2021/12/30 02:31:05;;;;;;;36.25;12.98;;;11.80;99.90;;;;;;6184680;23;20033;-87
2021/12/30 02:33:38;;;;;;;32.42;13.43;;;11.80;99.90;;;;;;6184307;23;20412;-87
2021/12/30 02:36:05;;;;;;;33.83;13.10;;;11.80;99.90;;;;;;6185423;23;20323;-88
2021/12/30 02:38:40;;;;;;;39.38;14.25;;;11.80;99.90;;;;;;6160274;23;20084;-87
2021/12/30 02:41:08;;;;;;;31.98;13.30;;;11.80;99.90;;;;;;6184722;23;20323;-88
2021/12/30 02:43:51;;;;;;;38.70;15.05;;;11.80;99.90;;;;;;6184388;23;20013;-88
2021/12/30 02:46:40;;;;;;;29.02;13.95;;;11.80;99.90;;;;;;6184652;23;20036;-88
2021/12/30 02:49:14;;;;;;;34.58;14.32;;;11.80;99.90;;;;;;6184874;23;19997;-87
2021/12/30 02:51:42;;;;;;;31.50;14.85;;;11.80;99.90;;;;;;6185109;23;20001;-87
2021/12/30 02:54:16;;;;;;;29.42;14.52;;;11.90;99.90;;;;;;6159974;23;20008;-87
2021/12/30 02:56:47;;;;;;;30.30;13.93;;;11.80;99.90;;;;;;6185783;23;20087;-87
2021/12/30 02:59:18;;;;;;;36.78;15.93;;;11.80;99.90;;;;;;6184551;23;20001;-88
2021/12/30 03:01:44;;;;;;;41.45;15.65;;;11.90;99.90;;;;;;6185332;23;20382;-87
2021/12/30 03:04:12;;;;;;;32.15;14.23;;;11.80;99.90;;;;;;6185471;23;20024;-88
2021/12/30 03:06:38;;;;;;;33.65;15.48;;;11.90;99.90;;;;;;6185202;23;20013;-87
2021/12/30 03:09:06;;;;;;;32.35;15.82;;;11.90;99.90;;;;;;6186412;23;20001;-87
2021/12/30 03:11:32;;;;;;;30.33;15.25;;;11.90;99.90;;;;;;6185446;23;20056;-87
2021/12/30 03:14:07;;;;;;;26.20;15.02;;;11.90;99.90;;;;;;6189418;23;20335;-88
2021/12/30 03:16:41;;;;;;;33.90;15.43;;;11.90;99.90;;;;;;6186077;23;20160;-88
2021/12/30 03:19:10;;;;;;;29.63;16.05;;;11.90;99.90;;;;;;6187288;23;20005;-87
2021/12/30 03:21:45;;;;;;;31.67;15.15;;;11.90;99.90;;;;;;6189779;23;20027;-87
2021/12/30 03:24:14;;;;;;;29.05;14.68;;;11.90;99.90;;;;;;6199577;23;19985;-87
2021/12/30 03:26:42;;;;;;;30.35;15.32;;;11.90;99.90;;;;;;6211811;23;20024;-88
2021/12/30 03:29:19;;;;;;;28.17;14.98;;;11.90;99.90;;;;;;6204199;23;20005;-87
2021/12/30 03:31:47;;;;;;;29.02;14.25;;;11.90;99.90;;;;;;6209284;23;20051;-87
2021/12/30 03:34:16;;;;;;;30.48;14.55;;;11.90;99.90;;;;;;6185123;23;20017;-87
2021/12/30 03:36:42;;;;;;;30.83;14.82;;;11.90;99.90;;;;;;6185316;23;20009;-88
2021/12/30 03:39:08;;;;;;;31.90;15.07;;;11.90;99.90;;;;;;6184864;23;20087;-88
2021/12/30 03:41:44;;;;;;;28.85;14.10;;;11.90;99.90;;;;;;6184853;23;20060;-87
2021/12/30 03:44:15;;;;;;;31.73;15.00;;;11.90;99.90;;;;;;6186524;23;20001;-87
2021/12/30 03:46:47;;;;;;;25.55;14.52;;;11.90;99.90;;;;;;6184558;23;20013;-88
2021/12/30 03:49:16;;;;;;;31.75;14.63;;;12.00;99.90;;;;;;6185771;23;20001;-87
2021/12/30 03:51:49;;;;;;;27.95;13.95;;;12.00;99.90;;;;;;6184469;23;20040;-87
2021/12/30 03:54:18;;;;;;;32.65;14.45;;;12.00;99.90;;;;;;6138297;23;20371;-88
2021/12/30 03:56:54;;;;;;;;;;;;;;;;;;;;;
2021/12/30 03:59:22;;;;;;;25.05;13.77;;;12.00;99.90;;;;;;6185728;23;20075;-87
2021/12/30 04:01:51;;;;;;;32.72;15.70;;;12.00;99.90;;;;;;6184350;23;20001;-87
2021/12/30 04:04:20;;;;;;;26.98;14.82;;;12.00;99.90;;;;;;6184260;23;20028;-87
2021/12/30 04:06:51;;;;;;;28.33;14.80;;;12.00;99.90;;;;;;6184264;23;20005;-87
2021/12/30 04:09:19;;;;;;;30.10;15.43;;;12.00;99.90;;;;;;6184547;23;20005;-87
2021/12/30 04:11:57;;;;;;;27.55;14.73;;;12.00;99.90;;;;;;6159513;23;20009;-87
2021/12/30 04:14:26;;;;;;;29.00;16.60;;;12.10;99.90;;;;;;6184215;23;20049;-87
2021/12/30 04:16:59;;;;;;;24.17;14.48;;;12.10;99.90;;;;;;6184680;23;20009;-88
2021/12/30 04:19:25;;;;;;;26.83;14.98;;;12.10;99.90;;;;;;6184221;23;20083;-88
2021/12/30 04:21:56;;;;;;;25.30;15.15;;;12.10;99.90;;;;;;6160053;23;20037;-88
2021/12/30 04:24:22;;;;;;;24.60;15.13;;;12.10;99.90;;;;;;6184281;23;19997;-88
2021/12/30 04:26:50;;;;;;;26.52;15.25;;;12.20;99.90;;;;;;6183990;23;20060;-87
2021/12/30 04:29:18;;;;;;;26.10;15.10;;;12.20;99.90;;;;;;6185160;23;20024;-87
2021/12/30 04:31:47;;;;;;;26.27;14.40;;;12.20;99.90;;;;;;6185919;23;20005;-87
2021/12/30 04:34:18;;;;;;;22.63;14.30;;;12.20;99.90;;;;;;6186329;23;20120;-88
2021/12/30 04:36:44;;;;;;;26.33;15.40;;;12.20;99.90;;;;;;6185609;23;20072;-87
2021/12/30 04:39:12;;;;;;;25.02;15.20;;;12.20;99.90;;;;;;6186412;23;20009;-87
2021/12/30 04:41:40;;;;;;;24.60;14.70;;;12.20;99.90;;;;;;6187728;23;20024;-87
2021/12/30 04:44:09;;;;;;;25.10;14.35;;;12.30;99.90;;;;;;6186576;23;19997;-87
2021/12/30 04:46:37;;;;;;;21.33;14.48;;;12.20;99.90;;;;;;6185501;23;20005;-88
2021/12/30 04:49:03;;;;;;;21.02;13.73;;;12.30;99.90;;;;;;6186217;23;20004;-87
2021/12/30 04:51:31;;;;;;;22.08;14.38;;;12.30;99.90;;;;;;6161834;23;20005;-87
2021/12/30 04:54:05;;;;;;;19.92;13.07;;;12.30;99.90;;;;;;6186502;23;20009;-87
2021/12/30 04:56:34;;;;;;;18.05;13.18;;;12.30;99.90;;;;;;6186468;23;20012;-88
2021/12/30 04:59:02;;;;;;;16.85;12.05;;;12.30;99.90;;;;;;6186987;23;20005;-87
2021/12/30 05:01:38;;;;;;;18.73;11.88;;;12.30;99.90;;;;;;6187350;23;20056;-87
2021/12/30 05:04:12;;;;;;;16.25;11.35;;;12.30;99.90;;;;;;6188997;23;20005;-87
2021/12/30 05:06:38;;;;;;;15.20;10.95;;;12.30;99.90;;;;;;6169065;23;20415;-87
2021/12/30 05:09:11;;;;;;;14.95;11.18;;;12.30;99.90;;;;;;6201259;23;20020;-87
2021/12/30 05:11:41;;;;;;;13.30;10.55;;;12.40;99.90;;;;;;6210289;23;20001;-87
2021/12/30 05:14:08;;;;;;;13.15;10.00;;;12.40;99.90;;;;;;6213674;23;19989;-87
2021/12/30 05:16:35;;;;;;;12.80;9.10;;;12.40;99.90;;;;;;6207040;23;20029;-86
2021/12/30 05:19:00;;;;;;;12.88;9.45;;;12.40;99.90;;;;;;6187009;23;20489;-86
2021/12/30 05:21:29;;;;;;;12.05;8.18;;;12.30;99.90;;;;;;6186382;23;20020;-87
2021/12/30 05:23:59;;;;;;;11.13;7.85;;;12.40;99.90;;;;;;6186365;23;20430;-87
2021/12/30 05:26:29;;;;;;;10.57;7.63;;;12.40;99.90;;;;;;6186159;23;20033;-87
2021/12/30 05:28:59;;;;;;;11.38;7.50;;;12.40;99.90;;;;;;6185889;23;20001;-87
2021/12/30 05:31:33;;;;;;;9.82;7.97;;;12.40;99.90;;;;;;6186022;23;20072;-87
2021/12/30 05:33:59;;;;;;;9.25;7.25;;;12.40;99.90;;;;;;6187101;23;20019;-87
2021/12/30 05:36:25;;;;;;;8.65;7.10;;;12.40;99.90;;;;;;6185695;23;20025;-87
2021/12/30 05:38:53;;;;;;;8.30;7.00;;;12.40;99.90;;;;;;6185305;23;20358;-87
2021/12/30 05:41:40;;;;;;;8.27;6.40;;;12.40;99.90;;;;;;6159328;23;20008;-87
2021/12/30 05:44:09;;;;;;;7.28;6.20;;;12.40;99.90;;;;;;6161422;23;20010;-87
2021/12/30 05:46:37;;;;;;;7.13;5.95;;;12.40;99.90;;;;;;6185150;23;20013;-87
2021/12/30 05:49:08;;;;;;;7.88;6.15;;;12.40;99.90;;;;;;6185414;23;20005;-87
2021/12/30 05:51:36;;;;;;;7.90;6.03;;;12.40;99.90;;;;;;6160727;23;20040;-87
2021/12/30 05:54:05;;;;;;;6.70;5.13;;;12.40;99.90;;;;;;6185336;23;20045;-88
2021/12/30 05:56:41;;;;;;;6.43;5.35;;;12.40;99.90;;;;;;6184812;23;20009;-87
2021/12/30 05:59:09;;;;;;;7.18;5.53;;;12.50;99.90;;;;;;6185665;23;19997;-87
2021/12/30 06:01:34;;;;;;;7.13;5.95;;;12.50;99.90;;;;;;6185318;23;20001;-87
2021/12/30 06:04:03;;;;;;;7.28;5.50;;;12.50;99.90;;;;;;6185646;23;20479;-87
2021/12/30 06:06:32;;;;;;;7.57;6.50;;;12.50;99.90;;;;;;6185209;23;20039;-88
2021/12/30 06:09:01;;;;;;;8.55;6.60;;;12.60;99.90;;;;;;6184537;23;20012;-87
2021/12/30 06:11:34;;;;;;;8.32;7.53;;;12.60;99.90;;;;;;6186796;23;20044;-87
2021/12/30 06:13:59;;;;;;;9.82;7.47;;;12.60;99.90;;;;;;6185999;23;20382;-87
2021/12/30 06:16:38;;;;;;;9.27;8.23;;;12.60;99.90;;;;;;6185024;23;20040;-88
2021/12/30 06:19:09;;;;;;;9.65;8.48;;;12.60;99.90;;;;;;6184933;23;20080;-88
2021/12/30 06:21:37;;;;;;;10.38;9.32;;;12.60;99.90;;;;;;6185064;23;20028;-87
2021/12/30 06:24:14;;;;;;;11.35;10.25;;;12.60;99.90;;;;;;6185541;23;20008;-87
2021/12/30 06:26:44;;;;;;;14.07;11.90;;;12.60;99.90;;;;;;6185075;23;20009;-87
2021/12/30 06:29:15;;;;;;;14.52;12.75;;;12.70;99.90;;;;;;6185530;23;20510;-87
2021/12/30 06:31:48;;;;;;;17.07;14.37;;;12.60;99.90;;;;;;6184917;23;20009;-87
2021/12/30 06:34:32;;;;;;;16.08;13.95;;;12.70;99.90;;;;;;6160511;23;20280;-87
2021/12/30 06:37:07;;;;;;;15.23;13.48;;;12.70;99.90;;;;;;6185087;23;20024;-88
2021/12/30 06:39:39;;;;;;;16.85;14.23;;;12.70;99.90;;;;;;6186004;23;20009;-88
2021/12/30 06:42:08;;;;;;;22.10;16.65;;;12.70;99.90;;;;;;6186194;23;20005;-88
2021/12/30 06:44:54;;;;;;;15.70;13.98;;;12.70;99.90;;;;;;6161759;23;20091;-88
2021/12/30 06:47:30;;;;;;;16.70;13.93;;;12.80;99.90;;;;;;6167166;23;20020;-88
2021/12/30 06:50:11;;;;;;;;;;;;;;;;;;;;;
2021/12/30 06:52:58;;;;;;;14.48;12.88;;;12.80;99.90;;;;;;6207924;23;19986;-89
2021/12/30 06:55:26;;;;;;;18.08;15.52;;;12.80;99.90;;;;;;6212737;23;19998;-90
2021/12/30 06:58:01;;;;;;;17.35;15.07;;;12.90;99.90;;;;;;6212123;23;20016;-89
2021/12/30 07:00:29;;;;;;;17.65;15.82;;;12.80;99.90;;;;;;6210514;23;20001;-89
2021/12/30 07:02:55;;;;;;;16.67;14.90;;;12.90;99.90;;;;;;6170678;23;20009;-89
2021/12/30 07:05:24;;;;;;;14.63;13.13;;;12.90;99.90;;;;;;6186655;23;20005;-89
2021/12/30 07:08:01;;;;;;;15.25;13.25;;;12.90;99.90;;;;;;6185909;23;20497;-89
2021/12/30 07:10:27;;;;;;;15.73;12.90;;;12.90;99.90;;;;;;6185861;23;20083;-88
2021/12/30 07:12:53;;;;;;;15.02;13.50;;;12.90;99.90;;;;;;6185142;23;20005;-88
2021/12/30 07:15:22;;;;;;;14.02;12.55;;;12.90;99.90;;;;;;6185291;23;20008;-89
2021/12/30 07:17:59;;;;;;;15.88;13.02;;;12.90;99.90;;;;;;6185109;23;20044;-89
2021/12/30 07:20:25;;;;;;;13.23;11.13;;;12.90;99.90;;;;;;6185776;23;20001;-89
2021/12/30 07:22:53;;;;;;;14.52;12.07;;;12.90;99.90;;;;;;6184959;23;20081;-89
2021/12/30 07:25:26;;;;;;;17.15;14.93;;;12.90;99.90;;;;;;6161403;23;20071;-88
2021/12/30 07:27:54;;;;;;;18.38;15.30;;;12.80;99.90;;;;;;6162196;23;20019;-88
2021/12/30 07:30:24;;;;;;;16.52;14.23;;;12.80;99.90;;;;;;6184886;23;19997;-88
2021/12/30 07:32:55;;;;;;;17.35;14.85;;;12.80;99.90;;;;;;6184721;23;20143;-89
2021/12/30 07:35:31;;;;;;;17.42;14.55;;;12.80;99.90;;;;;;6184824;23;20024;-88
2021/12/30 07:37:57;;;;;;;18.08;15.05;;;12.80;99.90;;;;;;6186275;23;20020;-89
2021/12/30 07:40:26;;;;;;;17.00;15.23;;;12.80;99.90;;;;;;6185564;23;20005;-90
2021/12/30 07:43:00;;;;;;;18.88;16.08;;;12.80;99.90;;;;;;6184989;23;20006;-90
2021/12/30 07:45:29;;;;;;;19.85;17.73;;;12.90;99.90;;;;;;6184848;23;20052;-88
2021/12/30 07:48:15;;;;;;;18.02;15.80;;;12.90;99.90;;;;;;6186287;23;20012;-90
2021/12/30 07:50:57;;;;;;;;;;;;;;;;;;;;;
2021/12/30 07:53:47;;;;;;;20.98;16.33;;;12.90;99.90;;;;;;6187404;23;20061;-89
2021/12/30 07:56:17;;;;;;;18.58;14.68;;;12.90;99.90;;;;;;6185614;23;20005;-90
2021/12/30 07:59:07;;;;;;;19.67;14.40;;;12.90;99.90;;;;;;6162305;23;20083;-89
2021/12/30 08:01:37;;;;;;;18.73;13.43;;;12.90;99.90;;;;;;6187054;23;19997;-88
2021/12/30 08:04:13;;;;;;;;;;;;;;;;;;;;;
2021/12/30 08:07:13;;;;;;;17.45;11.63;;;12.90;99.90;;;;;;6186819;23;20071;-89
2021/12/30 08:09:51;;;;;;;12.82;9.80;;;13.00;99.90;;;;;;6185209;23;20001;-88
2021/12/30 08:12:27;;;;;;;11.38;8.93;;;13.00;99.90;;;;;;6184792;23;20001;-87
2021/12/30 08:14:57;;;;;;;12.70;8.63;;;13.00;99.90;;;;;;6184981;23;20055;-88
2021/12/30 08:17:39;;;;;;;11.15;8.57;;;13.00;99.90;;;;;;6185134;23;20020;-88
2021/12/30 08:20:17;;;;;;;10.85;8.30;;;13.00;99.90;;;;;;6186135;23;20005;-93
2021/12/30 08:22:48;;;;;;;10.02;7.38;;;13.00;99.90;;;;;;6186357;23;20009;-92
2021/12/30 08:25:20;;;;;;;;;;;13.10;99.90;;;;;;6162005;23;20005;-89
2021/12/30 08:27:57;;;;;;;;;;;13.10;99.90;;;;;;6186854;23;20002;-89
2021/12/30 08:30:32;;;;;;;6.43;5.35;;;13.10;99.90;;;;;;6188745;23;19908;-91
2021/12/30 08:33:06;;;;;;;7.25;5.90;;;13.10;99.90;;;;;;6188416;23;20001;-93
2021/12/30 08:35:34;;;;;;;8.00;5.45;;;13.10;99.90;;;;;;6203896;23;20015;-89
2021/12/30 08:38:07;;;;;;;7.55;6.07;;;13.10;99.90;;;;;;6161898;23;20008;-90
2021/12/30 08:40:50;;;;;;;7.30;5.95;;;13.20;99.90;;;;;;6158092;23;20040;-90
2021/12/30 08:43:25;;;;;;;7.05;5.72;;;13.20;99.90;;;;;;6175326;23;20489;-88
2021/12/30 08:45:52;;;;;;;8.75;5.72;;;13.20;99.90;;;;;;6167563;23;20001;-88
2021/12/30 08:48:20;;;;;;;8.95;5.70;;;13.20;99.90;;;;;;6160845;23;19997;-89
2021/12/30 08:50:49;;;;;;;6.65;5.85;;;13.30;99.90;;;;;;6186384;23;20032;-89
2021/12/30 08:53:25;;;;;;;8.20;6.60;;;13.30;99.90;;;;;;6159855;23;20001;-89
2021/12/30 08:55:52;;;;;;;7.95;5.93;;;13.30;99.90;;;;;;6136973;23;20034;-88
2021/12/30 08:58:20;;;;;;;10.40;7.25;;;13.30;99.90;;;;;;6159619;23;20048;-90
2021/12/30 09:01:08;;;;;;;10.68;7.50;;;13.30;99.90;;;;;;6160071;23;20086;-90
2021/12/30 09:03:34;;;;;;;8.30;6.47;;;13.30;99.90;;;;;;6160557;23;20419;-89
2021/12/30 09:06:08;;;;;;;9.10;6.35;;;13.30;99.90;;;;;;6159717;23;19997;-89
2021/12/30 09:08:59;;;;;;;9.90;6.43;;;13.30;99.90;;;;;;6160335;23;20080;-89
2021/12/30 09:11:32;;;;;;;8.27;6.15;;;13.30;99.90;;;;;;6135322;23;20036;-90
2021/12/30 09:14:11;;;;;;;;;;;;;;;;;;;;;
2021/12/30 09:16:37;;;;;;;8.40;5.75;;;13.40;99.90;;;;;;6186613;23;20076;-89
2021/12/30 09:19:06;;;;;;;8.45;5.38;;;13.30;99.90;;;;;;6136740;23;20056;-89
2021/12/30 09:21:38;;;;;;;7.00;5.10;;;13.40;99.90;;;;;;6161693;23;19997;-89
2021/12/30 09:24:11;;;;;;;6.35;4.88;;;13.40;99.90;;;;;;6160800;23;20001;-88
2021/12/30 09:26:38;;;;;;;7.55;4.70;;;13.40;99.90;;;;;;6138453;23;20119;-88
2021/12/30 09:29:55;;;;;;;;;;;;;;;;;;;;;
2021/12/30 09:32:29;;;;;;;9.45;5.13;;;13.50;99.90;;;;;;6190025;23;20081;-88
2021/12/30 09:35:00;;;;;;;8.00;4.07;;;13.50;99.90;;;;;;6180147;23;20009;-88
2021/12/30 09:37:42;;;;;;;7.82;4.15;;;13.50;99.90;;;;;;6162525;23;20068;-89
2021/12/30 09:40:21;;;;;;;5.50;3.60;;;13.50;99.90;;;;;;6187357;23;20328;-88
2021/12/30 09:42:54;;;;;;;5.95;3.63;;;13.50;99.90;;;;;;6188127;23;20001;-94
2021/12/30 09:45:23;;;;;;;6.10;3.50;;;13.50;99.90;;;;;;6186585;23;20005;-92
2021/12/30 09:47:54;;;;;;;4.80;3.13;;;13.60;99.90;;;;;;6162152;23;20089;-94
2021/12/30 09:50:25;;;;;;;7.30;3.58;;;13.60;99.90;;;;;;6186922;23;20001;-92
2021/12/30 09:52:57;;;;;;;8.75;3.45;;;13.60;99.90;;;;;;6187071;23;20033;-95
2021/12/30 09:55:42;;;;;;;;;;;;;;;;;;;;;
2021/12/30 09:58:26;;;;;;;8.15;3.33;;;13.60;99.90;;;;;;6186475;23;20048;-92
2021/12/30 10:01:20;;;;;;;7.65;2.70;;;13.70;99.90;;;;;;6186981;23;20008;-89
2021/12/30 10:04:01;;;;;;;7.20;2.80;;;13.70;99.90;;;;;;6187103;23;20009;-88
2021/12/30 10:06:39;;;;;;;5.28;3.00;;;13.70;99.90;;;;;;6164734;23;20013;-89
2021/12/30 10:09:15;;;;;;;9.43;2.95;;;13.70;99.90;;;;;;6188501;23;20032;-89
2021/12/30 10:11:46;;;;;;;7.50;2.88;;;13.70;99.90;;;;;;6164766;23;20005;-93
2021/12/30 10:14:32;;;;;;;7.75;2.80;;;13.70;99.90;;;;;;6188087;23;20442;-91
2021/12/30 10:20:31;;;;;;;8.13;2.20;;;13.70;99.90;;;;;;6192950;23;20001;-89
2021/12/30 10:23:22;;;;;;;10.88;3.25;;;13.80;99.90;;;;;;6212459;23;20001;-89
2021/12/30 10:26:34;;;;;;;7.68;2.80;;;13.80;99.90;;;;;;6211825;23;20033;-89
2021/12/30 10:29:49;;;;;;;8.23;3.03;;;13.80;99.90;;;;;;6209814;23;19989;-87
2021/12/30 10:32:32;;;;;;;9.00;3.00;;;13.80;99.90;;;;;;6201182;23;20004;-88
2021/12/30 10:35:14;;;;;;;8.50;2.83;;;13.80;99.90;;;;;;6187920;23;20040;-89
2021/12/30 10:38:00;;;;;;;16.38;3.60;;;13.90;99.90;;;;;;6187057;23;20009;-88
2021/12/30 10:40:41;;;;;;;11.70;3.83;;;13.90;99.90;;;;;;6164641;23;20088;-89
2021/12/30 10:43:44;;;;;;;11.52;3.28;;;13.90;99.90;;;;;;6185652;23;20005;-89
2021/12/30 10:46:15;;;;;;;12.25;4.13;;;13.80;99.90;;;;;;6185754;23;20001;-87
2021/12/30 10:48:59;;;;;;;12.27;4.50;;;13.80;99.90;;;;;;6186944;23;20001;-88
2021/12/30 10:51:48;;;;;;;11.57;3.42;;;13.90;99.90;;;;;;6187421;23;20079;-89
2021/12/30 10:54:14;;;;;;;10.98;3.75;;;13.80;99.90;;;;;;6185711;23;20012;-88
2021/12/30 10:56:46;;;;;;;12.13;4.50;;;13.80;99.90;;;;;;6185987;23;20013;-89
2021/12/30 10:59:15;;;;;;;13.93;4.82;;;13.80;99.90;;;;;;6185700;23;20515;-88
2021/12/30 11:02:13;;;;;;;12.20;3.75;;;13.90;99.90;;;;;;6186724;23;20316;-89
2021/12/30 11:05:11;;;;;;;11.90;4.40;;;13.90;99.90;;;;;;6179764;23;20431;-89
2021/12/30 11:07:51;;;;;;;9.68;3.60;;;13.90;99.90;;;;;;6120142;23;20043;-89
2021/12/30 11:10:32;;;;;;;10.02;3.85;;;13.90;99.90;;;;;;6185013;23;20001;-90
2021/12/30 11:13:17;;;;;;;9.88;3.90;;;13.90;99.90;;;;;;6185187;23;20004;-90
2021/12/30 11:15:43;;;;;;;10.80;3.80;;;13.90;99.90;;;;;;6184297;23;20027;-90
2021/12/30 11:18:19;;;;;;;10.98;3.97;;;13.90;99.90;;;;;;6184987;23;20482;-91
2021/12/30 11:20:47;;;;;;;10.68;3.20;;;13.90;99.90;;;;;;6186109;23;20024;-88
2021/12/30 11:23:32;;;;;;;12.25;3.47;;;13.90;99.90;;;;;;6184321;23;19997;-93
2021/12/30 11:26:01;;;;;;;11.48;3.67;;;13.90;99.90;;;;;;6162153;23;20009;-89
2021/12/30 11:28:26;;;;;;;11.73;3.58;;;13.90;99.90;;;;;;6184716;23;20009;-90
2021/12/30 11:31:06;;;;;;;16.35;7.32;;;14.00;99.90;;;;;;6184819;23;20319;-89
2021/12/30 11:33:40;;;;;;;16.50;5.72;;;14.00;99.90;;;;;;6184133;23;20008;-89
2021/12/30 11:36:15;;;;;;;14.20;4.63;;;14.00;99.90;;;;;;6160755;23;20005;-89
2021/12/30 11:38:41;;;;;;;8.77;3.60;;;14.00;99.90;;;;;;6186461;23;20002;-86
2021/12/30 11:41:07;;;;;;;11.48;3.20;;;14.00;99.90;;;;;;6184968;23;20001;-87
2021/12/30 11:43:46;;;;;;;11.98;3.53;;;14.00;99.90;;;;;;6184879;23;20013;-86
2021/12/30 11:46:38;;;;;;;11.10;3.63;;;14.00;99.90;;;;;;6160249;23;20063;-87
2021/12/30 11:49:15;;;;;;;13.70;3.88;;;14.00;99.90;;;;;;6185264;23;20359;-87
2021/12/30 11:52:01;;;;;;;;;;;;;;;;;;;;;
2021/12/30 11:54:34;;;;;;;10.43;3.25;;;14.00;99.90;;;;;;6185780;23;20075;-88
2021/12/30 11:57:34;;;;;;;13.25;3.50;;;14.00;99.90;;;;;;6185821;23;20033;-87
2021/12/30 12:00:36;;;;;;;10.32;2.92;;;14.00;99.90;;;;;;6186326;23;20001;-88
2021/12/30 12:03:35;;;;;;;13.05;3.78;;;14.00;99.90;;;;;;6184961;23;20001;-88
2021/12/30 12:08:58;;;;;;;10.73;3.05;;;14.10;99.90;;;;;;6206471;23;20050;-88
2021/12/30 12:11:42;;;;;;;9.10;3.20;;;14.00;99.90;;;;;;6212290;23;20001;-88
2021/12/30 12:14:27;;;;;;;10.82;3.20;;;14.00;99.90;;;;;;6212403;23;19993;-88
2021/12/30 12:17:03;;;;;;;7.63;3.17;;;14.00;99.90;;;;;;6211692;23;20009;-85
2021/12/30 12:19:46;;;;;;;9.25;2.47;;;14.00;99.90;;;;;;6196165;23;20008;-88
2021/12/30 12:22:18;;;;;;;7.65;2.90;;;14.10;99.90;;;;;;6185655;23;20008;-87
2021/12/30 12:24:47;;;;;;;9.60;3.22;;;14.10;99.90;;;;;;6187019;23;20005;-88
2021/12/30 12:27:22;;;;;;;9.68;3.25;;;14.10;99.90;;;;;;6184522;23;20012;-88
2021/12/30 12:29:52;;;;;;;12.30;3.30;;;14.10;99.90;;;;;;6184894;23;20002;-88
2021/12/30 12:32:33;;;;;;;11.13;3.83;;;14.10;99.90;;;;;;6184799;23;19998;-88
2021/12/30 12:35:00;;;;;;;;;;;14.10;99.90;;;;;;6184510;23;20013;-88
2021/12/30 12:37:39;;;;;;;9.05;3.35;;;14.10;99.90;;;;;;6184575;23;19947;-89
2021/12/30 12:40:13;;;;;;;8.93;2.72;;;14.10;99.90;;;;;;6185181;23;20008;-88
2021/12/30 12:42:48;;;;;;;9.68;2.85;;;14.10;99.90;;;;;;6184508;23;20443;-89
2021/12/30 12:45:31;;;;;;;9.27;2.78;;;14.10;99.90;;;;;;6184412;23;20083;-88
2021/12/30 12:48:20;;;;;;;9.35;3.13;;;14.10;99.90;;;;;;6185328;23;20084;-89
2021/12/30 12:50:51;;;;;;;6.90;2.75;;;14.10;99.90;;;;;;6185208;23;20419;-88
2021/12/30 12:53:49;;;;;;;9.18;3.13;;;14.10;99.90;;;;;;6186589;23;20323;-88
2021/12/30 12:56:29;;;;;;;18.42;9.93;;;14.10;99.90;;;;;;6186384;23;20016;-88
2021/12/30 12:58:58;;;;;;;13.00;4.50;;;14.20;99.90;;;;;;6186952;23;20442;-87
2021/12/30 13:01:39;;;;;;;;;;;;;;;;;;;;;
2021/12/30 13:04:10;;;;;;;6.35;2.88;;;14.20;99.90;;;;;;6187653;23;20064;-88
2021/12/30 13:06:45;;;;;;;9.52;2.72;;;14.20;99.90;;;;;;6138228;23;20013;-89
2021/12/30 13:09:23;;;;;;;8.35;3.05;;;14.20;99.90;;;;;;6186396;23;20428;-88
2021/12/30 13:11:52;;;;;;;8.98;3.20;;;14.20;99.90;;;;;;6186148;23;20012;-89
2021/12/30 13:14:19;;;;;;;8.43;3.13;;;14.20;99.90;;;;;;6186264;23;20049;-90
2021/12/30 13:16:55;;;;;;;9.52;3.35;;;14.20;99.90;;;;;;6186647;23;20022;-89
2021/12/30 13:19:36;;;;;;;9.95;3.00;;;14.20;99.90;;;;;;6186221;23;20005;-89
2021/12/30 13:22:31;;;;;;;;;;;14.20;99.90;;;;;;6187325;23;20034;-89
2021/12/30 13:25:04;;;;;;;6.95;2.38;;;14.20;99.90;;;;;;6183507;23;20250;-90
2021/12/30 13:27:38;;;;;;;4.97;2.10;;;14.20;99.90;;;;;;6161347;23;20009;-90
2021/12/30 13:30:13;;;;;;;10.15;3.17;;;14.20;99.90;;;;;;6188191;23;20519;-90
2021/12/30 13:32:47;;;;;;;8.55;2.50;;;14.20;99.90;;;;;;6186330;23;19997;-89
2021/12/30 13:35:24;;;;;;;7.00;2.92;;;14.20;99.90;;;;;;6185936;23;20009;-89
2021/12/30 13:37:54;;;;;;;6.35;2.60;;;14.20;99.90;;;;;;6186831;23;20008;-89
2021/12/30 13:40:33;;;;;;;8.55;3.20;;;14.20;99.90;;;;;;6186589;23;20005;-89